sensor_id;sensor_type;location;lat;lon;timestamp;pressure;altitude;pressure_sealevel;temperature;humidity
5296;BME280;2670;42.720;23.336;2023-07-20T00:01:32;-18091.72;;;-145.34;58.53
5296;BME280;2670;42.720;23.336;2023-07-20T00:03:59;-18091.72;;;-145.34;58.22
5296;BME280;2670;42.720;23.336;2023-07-20T00:06:27;-18091.72;;;-145.34;59.07
5296;BME280;2670;42.720;23.336;2023-07-20T00:08:54;-18091.72;;;-145.34;58.87
5296;BME280;2670;42.720;23.336;2023-07-20T00:11:21;-18091.72;;;-145.34;58.75
5296;BME280;2670;42.720;23.336;2023-07-20T00:13:48;-18091.72;;;-145.34;58.37
5296;BME280;2670;42.720;23.336;2023-07-20T00:16:15;-18091.72;;;-145.34;58.53
5296;BME280;2670;42.720;23.336;2023-07-20T00:18:41;-18091.72;;;-145.34;59.58
5296;BME280;2670;42.720;23.336;2023-07-20T00:21:09;-18091.72;;;-145.34;60.78
5296;BME280;2670;42.720;23.336;2023-07-20T00:23:38;-18091.72;;;-145.34;61.20
5296;BME280;2670;42.720;23.336;2023-07-20T00:26:04;-18091.72;;;-145.34;61.80
5296;BME280;2670;42.720;23.336;2023-07-20T00:28:31;-18091.72;;;-145.34;62.57
5296;BME280;2670;42.720;23.336;2023-07-20T00:30:59;-18091.72;;;-145.34;62.29
5296;BME280;2670;42.720;23.336;2023-07-20T00:33:26;-18091.72;;;-145.34;62.83
5296;BME280;2670;42.720;23.336;2023-07-20T00:35:52;-18091.72;;;-145.34;62.85
5296;BME280;2670;42.720;23.336;2023-07-20T00:38:19;-18091.72;;;-145.34;63.67
5296;BME280;2670;42.720;23.336;2023-07-20T00:40:48;-18091.72;;;-145.34;63.83
5296;BME280;2670;42.720;23.336;2023-07-20T00:43:15;-18091.72;;;-145.34;63.74
5296;BME280;2670;42.720;23.336;2023-07-20T00:45:42;-18091.72;;;-145.34;64.05
5296;BME280;2670;42.720;23.336;2023-07-20T00:48:10;-18091.72;;;-145.34;63.34
5296;BME280;2670;42.720;23.336;2023-07-20T00:50:38;-18091.72;;;-145.34;63.40
5296;BME280;2670;42.720;23.336;2023-07-20T00:53:06;-18091.72;;;-145.34;62.70
5296;BME280;2670;42.720;23.336;2023-07-20T00:55:34;-18091.72;;;-145.34;63.17
5296;BME280;2670;42.720;23.336;2023-07-20T00:58:02;-18091.72;;;-145.34;62.71
5296;BME280;2670;42.720;23.336;2023-07-20T01:00:29;-18091.72;;;-145.34;62.92
5296;BME280;2670;42.720;23.336;2023-07-20T01:02:55;-18091.72;;;-145.34;63.46
5296;BME280;2670;42.720;23.336;2023-07-20T01:05:28;-18091.72;;;-145.34;63.65
5296;BME280;2670;42.720;23.336;2023-07-20T01:08:03;-18091.72;;;-145.34;63.60
5296;BME280;2670;42.720;23.336;2023-07-20T01:10:39;-18091.72;;;-145.34;64.24
5296;BME280;2670;42.720;23.336;2023-07-20T01:13:09;-18091.72;;;-145.34;63.47
5296;BME280;2670;42.720;23.336;2023-07-20T01:15:36;-18091.72;;;-145.34;63.05
5296;BME280;2670;42.720;23.336;2023-07-20T01:18:03;-18091.72;;;-145.34;63.46
5296;BME280;2670;42.720;23.336;2023-07-20T01:20:32;-18091.72;;;-145.34;63.25
5296;BME280;2670;42.720;23.336;2023-07-20T01:23:22;-18091.72;;;-145.34;62.85
5296;BME280;2670;42.720;23.336;2023-07-20T01:26:27;-18091.72;;;-145.34;63.23
5296;BME280;2670;42.720;23.336;2023-07-20T01:29:17;-18091.72;;;-145.34;63.44
5296;BME280;2670;42.720;23.336;2023-07-20T01:31:52;-18091.72;;;-145.34;63.26
5296;BME280;2670;42.720;23.336;2023-07-20T01:34:20;-18091.72;;;-145.34;63.39
5296;BME280;2670;42.720;23.336;2023-07-20T01:36:50;-18091.72;;;-145.34;63.64
5296;BME280;2670;42.720;23.336;2023-07-20T01:39:17;-18091.72;;;-145.34;63.92
5296;BME280;2670;42.720;23.336;2023-07-20T01:41:45;-18091.72;;;-145.34;63.34
5296;BME280;2670;42.720;23.336;2023-07-20T01:44:12;-18091.72;;;-145.34;63.63
5296;BME280;2670;42.720;23.336;2023-07-20T01:46:39;-18091.72;;;-145.34;63.97
5296;BME280;2670;42.720;23.336;2023-07-20T01:49:07;-18091.72;;;-145.34;64.22
5296;BME280;2670;42.720;23.336;2023-07-20T01:51:34;-18091.72;;;-145.34;64.35
5296;BME280;2670;42.720;23.336;2023-07-20T01:54:00;-18091.72;;;-145.34;64.21
5296;BME280;2670;42.720;23.336;2023-07-20T01:56:27;-18091.72;;;-145.34;64.70
5296;BME280;2670;42.720;23.336;2023-07-20T01:58:54;-18091.72;;;-145.34;65.26
5296;BME280;2670;42.720;23.336;2023-07-20T02:01:21;-18091.72;;;-145.34;65.26
5296;BME280;2670;42.720;23.336;2023-07-20T02:03:47;-18091.72;;;-145.34;64.23
5296;BME280;2670;42.720;23.336;2023-07-20T02:06:15;-18091.72;;;-145.34;64.56
5296;BME280;2670;42.720;23.336;2023-07-20T02:08:43;-18091.72;;;-145.34;64.95
5296;BME280;2670;42.720;23.336;2023-07-20T02:11:09;-18091.72;;;-145.34;65.55
5296;BME280;2670;42.720;23.336;2023-07-20T02:13:36;-18091.72;;;-145.34;65.16
5296;BME280;2670;42.720;23.336;2023-07-20T02:16:03;-18091.72;;;-145.34;64.88
5296;BME280;2670;42.720;23.336;2023-07-20T02:18:30;-18091.72;;;-145.34;65.12
5296;BME280;2670;42.720;23.336;2023-07-20T02:20:57;-18091.72;;;-145.34;65.39
5296;BME280;2670;42.720;23.336;2023-07-20T02:23:25;-18091.72;;;-145.34;66.13
5296;BME280;2670;42.720;23.336;2023-07-20T02:25:52;-18091.72;;;-145.34;66.04
5296;BME280;2670;42.720;23.336;2023-07-20T02:28:19;-18091.72;;;-145.34;66.29
5296;BME280;2670;42.720;23.336;2023-07-20T02:30:45;-18091.72;;;-145.34;66.82
5296;BME280;2670;42.720;23.336;2023-07-20T02:33:12;-18091.72;;;-145.34;66.89
5296;BME280;2670;42.720;23.336;2023-07-20T02:35:40;-18091.72;;;-145.34;66.51
5296;BME280;2670;42.720;23.336;2023-07-20T02:38:06;-18091.72;;;-145.34;66.16
5296;BME280;2670;42.720;23.336;2023-07-20T02:40:35;-18091.72;;;-145.34;66.72
5296;BME280;2670;42.720;23.336;2023-07-20T02:43:01;-18091.72;;;-145.34;66.93
5296;BME280;2670;42.720;23.336;2023-07-20T02:45:29;-18091.72;;;-145.34;66.87
5296;BME280;2670;42.720;23.336;2023-07-20T02:47:56;-18091.72;;;-145.34;67.28
5296;BME280;2670;42.720;23.336;2023-07-20T02:50:22;-18091.72;;;-145.34;67.77
5296;BME280;2670;42.720;23.336;2023-07-20T02:52:49;-18091.72;;;-145.34;68.68
5296;BME280;2670;42.720;23.336;2023-07-20T02:55:16;-18091.72;;;-145.34;68.14
5296;BME280;2670;42.720;23.336;2023-07-20T02:57:44;-18091.72;;;-145.34;67.17
5296;BME280;2670;42.720;23.336;2023-07-20T03:00:12;-18091.72;;;-145.34;66.68
5296;BME280;2670;42.720;23.336;2023-07-20T03:02:40;-18091.72;;;-145.34;66.58
5296;BME280;2670;42.720;23.336;2023-07-20T03:05:08;-18091.72;;;-145.34;66.84
5296;BME280;2670;42.720;23.336;2023-07-20T03:07:35;-18091.72;;;-145.34;67.44
5296;BME280;2670;42.720;23.336;2023-07-20T03:10:02;-18091.72;;;-145.34;67.13
5296;BME280;2670;42.720;23.336;2023-07-20T03:12:29;-18091.72;;;-145.34;66.68
5296;BME280;2670;42.720;23.336;2023-07-20T03:14:57;-18091.72;;;-145.34;66.51
5296;BME280;2670;42.720;23.336;2023-07-20T03:17:24;-18091.72;;;-145.34;65.46
5296;BME280;2670;42.720;23.336;2023-07-20T03:19:51;-18091.72;;;-145.34;65.04
5296;BME280;2670;42.720;23.336;2023-07-20T03:22:18;-18091.72;;;-145.34;65.83
5296;BME280;2670;42.720;23.336;2023-07-20T03:24:44;-18091.72;;;-145.34;65.73
5296;BME280;2670;42.720;23.336;2023-07-20T03:27:11;-18091.72;;;-145.34;66.53
5296;BME280;2670;42.720;23.336;2023-07-20T03:29:38;-18091.72;;;-145.34;66.58
5296;BME280;2670;42.720;23.336;2023-07-20T03:32:07;-18091.72;;;-145.34;66.62
5296;BME280;2670;42.720;23.336;2023-07-20T03:34:33;-18091.72;;;-145.34;66.42
5296;BME280;2670;42.720;23.336;2023-07-20T03:37:00;-18091.72;;;-145.34;66.38
5296;BME280;2670;42.720;23.336;2023-07-20T03:39:30;-18091.72;;;-145.34;66.29
5296;BME280;2670;42.720;23.336;2023-07-20T03:41:57;-18091.72;;;-145.34;66.88
5296;BME280;2670;42.720;23.336;2023-07-20T03:44:24;-18091.72;;;-145.34;67.32
5296;BME280;2670;42.720;23.336;2023-07-20T03:46:50;-18091.72;;;-145.34;67.17
5296;BME280;2670;42.720;23.336;2023-07-20T03:49:19;-18091.72;;;-145.34;67.52
5296;BME280;2670;42.720;23.336;2023-07-20T03:51:45;-18091.72;;;-145.34;68.31
5296;BME280;2670;42.720;23.336;2023-07-20T03:54:12;-18091.72;;;-145.34;68.91
5296;BME280;2670;42.720;23.336;2023-07-20T03:56:39;-18091.72;;;-145.34;69.47
5296;BME280;2670;42.720;23.336;2023-07-20T03:59:05;-18091.72;;;-145.34;69.22
5296;BME280;2670;42.720;23.336;2023-07-20T04:01:32;-18091.72;;;-145.34;69.14
5296;BME280;2670;42.720;23.336;2023-07-20T04:04:04;-18091.72;;;-145.34;68.70
5296;BME280;2670;42.720;23.336;2023-07-20T04:06:33;-18091.72;;;-145.34;68.95
5296;BME280;2670;42.720;23.336;2023-07-20T04:09:00;-18091.72;;;-145.34;68.68
5296;BME280;2670;42.720;23.336;2023-07-20T04:11:26;-18091.72;;;-145.34;68.50
5296;BME280;2670;42.720;23.336;2023-07-20T04:13:53;-18091.72;;;-145.34;68.24
5296;BME280;2670;42.720;23.336;2023-07-20T04:16:21;-18091.72;;;-145.34;67.48
5296;BME280;2670;42.720;23.336;2023-07-20T04:18:48;-18091.72;;;-145.34;67.51
5296;BME280;2670;42.720;23.336;2023-07-20T04:21:14;-18091.72;;;-145.34;67.84
5296;BME280;2670;42.720;23.336;2023-07-20T04:23:43;-18091.72;;;-145.34;68.38
5296;BME280;2670;42.720;23.336;2023-07-20T04:26:10;-18091.72;;;-145.34;69.18
5296;BME280;2670;42.720;23.336;2023-07-20T04:28:37;-18091.72;;;-145.34;69.36
5296;BME280;2670;42.720;23.336;2023-07-20T04:31:11;-18091.72;;;-145.34;70.42
5296;BME280;2670;42.720;23.336;2023-07-20T04:33:39;-18091.72;;;-145.34;69.35
5296;BME280;2670;42.720;23.336;2023-07-20T04:36:06;-18091.72;;;-145.34;69.91
5296;BME280;2670;42.720;23.336;2023-07-20T04:38:33;-18091.72;;;-145.34;69.87
5296;BME280;2670;42.720;23.336;2023-07-20T04:41:00;-18091.72;;;-145.34;70.22
5296;BME280;2670;42.720;23.336;2023-07-20T04:43:29;-18091.72;;;-145.34;69.78
5296;BME280;2670;42.720;23.336;2023-07-20T04:45:56;-18091.72;;;-145.34;68.48
5296;BME280;2670;42.720;23.336;2023-07-20T04:48:23;-18091.72;;;-145.34;69.33
5296;BME280;2670;42.720;23.336;2023-07-20T04:50:50;-18091.72;;;-145.34;69.54
5296;BME280;2670;42.720;23.336;2023-07-20T04:53:17;-18091.72;;;-145.34;68.48
5296;BME280;2670;42.720;23.336;2023-07-20T04:55:48;-18091.72;;;-145.34;69.03
5296;BME280;2670;42.720;23.336;2023-07-20T04:58:17;-18091.72;;;-145.34;68.49
5296;BME280;2670;42.720;23.336;2023-07-20T05:00:44;-18091.72;;;-145.34;68.71
5296;BME280;2670;42.720;23.336;2023-07-20T05:03:11;-18091.72;;;-145.34;68.27
5296;BME280;2670;42.720;23.336;2023-07-20T05:05:37;-18091.72;;;-145.34;68.06
5296;BME280;2670;42.720;23.336;2023-07-20T05:08:04;-18091.72;;;-145.34;66.39
5296;BME280;2670;42.720;23.336;2023-07-20T05:10:31;-18091.72;;;-145.34;66.78
5296;BME280;2670;42.720;23.336;2023-07-20T05:12:58;-18091.72;;;-145.34;67.19
5296;BME280;2670;42.720;23.336;2023-07-20T05:15:26;-18091.72;;;-145.34;66.80
5296;BME280;2670;42.720;23.336;2023-07-20T05:17:53;-18091.72;;;-145.34;67.56
5296;BME280;2670;42.720;23.336;2023-07-20T05:20:20;-18091.72;;;-145.34;67.94
5296;BME280;2670;42.720;23.336;2023-07-20T05:22:47;-18091.72;;;-145.34;67.61
5296;BME280;2670;42.720;23.336;2023-07-20T05:25:13;-18091.72;;;-145.34;68.11
5296;BME280;2670;42.720;23.336;2023-07-20T05:27:43;-18091.72;;;-145.34;68.07
5296;BME280;2670;42.720;23.336;2023-07-20T05:30:10;-18091.72;;;-145.34;68.35
5296;BME280;2670;42.720;23.336;2023-07-20T05:32:39;-18091.72;;;-145.34;68.04
5296;BME280;2670;42.720;23.336;2023-07-20T05:35:07;-18091.72;;;-145.34;68.31
5296;BME280;2670;42.720;23.336;2023-07-20T05:37:34;-18091.72;;;-145.34;66.60
5296;BME280;2670;42.720;23.336;2023-07-20T05:40:00;-18091.72;;;-145.34;67.48
5296;BME280;2670;42.720;23.336;2023-07-20T05:42:27;-18091.72;;;-145.34;67.21
5296;BME280;2670;42.720;23.336;2023-07-20T05:44:54;-18091.72;;;-145.34;67.78
5296;BME280;2670;42.720;23.336;2023-07-20T05:47:20;-18091.72;;;-145.34;67.73
5296;BME280;2670;42.720;23.336;2023-07-20T05:49:49;-18091.72;;;-145.34;68.16
5296;BME280;2670;42.720;23.336;2023-07-20T05:52:15;-18091.72;;;-145.34;68.13
5296;BME280;2670;42.720;23.336;2023-07-20T05:54:42;-18091.72;;;-145.34;68.32
5296;BME280;2670;42.720;23.336;2023-07-20T05:57:09;-18091.72;;;-145.34;68.31
5296;BME280;2670;42.720;23.336;2023-07-20T05:59:36;-18091.72;;;-145.34;66.82
5296;BME280;2670;42.720;23.336;2023-07-20T06:02:04;-18091.72;;;-145.34;66.29
5296;BME280;2670;42.720;23.336;2023-07-20T06:04:31;-18091.72;;;-145.34;66.54
5296;BME280;2670;42.720;23.336;2023-07-20T06:06:59;-18091.72;;;-145.34;65.64
5296;BME280;2670;42.720;23.336;2023-07-20T06:09:25;-18091.72;;;-145.34;66.18
5296;BME280;2670;42.720;23.336;2023-07-20T06:11:52;-18091.72;;;-145.34;66.02
5296;BME280;2670;42.720;23.336;2023-07-20T06:14:21;-18091.72;;;-145.34;66.78
5296;BME280;2670;42.720;23.336;2023-07-20T06:16:47;-18091.72;;;-145.34;65.41
5296;BME280;2670;42.720;23.336;2023-07-20T06:19:14;-18091.72;;;-145.34;65.44
5296;BME280;2670;42.720;23.336;2023-07-20T06:21:41;-18091.72;;;-145.34;64.98
5296;BME280;2670;42.720;23.336;2023-07-20T06:24:09;-18091.72;;;-145.34;65.09
5296;BME280;2670;42.720;23.336;2023-07-20T06:26:36;-18091.72;;;-145.34;63.91
5296;BME280;2670;42.720;23.336;2023-07-20T06:29:04;-18091.72;;;-145.34;63.48
5296;BME280;2670;42.720;23.336;2023-07-20T06:31:31;-18091.72;;;-145.34;64.02
5296;BME280;2670;42.720;23.336;2023-07-20T06:33:58;-18091.72;;;-145.34;63.34
5296;BME280;2670;42.720;23.336;2023-07-20T06:36:25;-18091.72;;;-145.34;61.91
5296;BME280;2670;42.720;23.336;2023-07-20T06:38:52;-18091.72;;;-145.34;62.51
5296;BME280;2670;42.720;23.336;2023-07-20T06:41:20;-18091.72;;;-145.34;61.34
5296;BME280;2670;42.720;23.336;2023-07-20T06:43:47;-18091.72;;;-145.34;62.74
5296;BME280;2670;42.720;23.336;2023-07-20T06:46:14;-18091.72;;;-145.34;62.09
5296;BME280;2670;42.720;23.336;2023-07-20T06:48:41;-18091.72;;;-145.34;62.43
5296;BME280;2670;42.720;23.336;2023-07-20T06:51:07;-18091.72;;;-145.34;61.44
5296;BME280;2670;42.720;23.336;2023-07-20T06:53:34;-18091.72;;;-145.34;60.20
5296;BME280;2670;42.720;23.336;2023-07-20T06:56:01;-18091.72;;;-145.34;61.28
5296;BME280;2670;42.720;23.336;2023-07-20T06:58:29;-18091.72;;;-145.34;59.64
5296;BME280;2670;42.720;23.336;2023-07-20T07:00:56;-18091.72;;;-145.34;59.91
5296;BME280;2670;42.720;23.336;2023-07-20T07:03:22;-18091.72;;;-145.34;58.89
5296;BME280;2670;42.720;23.336;2023-07-20T07:05:49;-18091.72;;;-145.34;58.15
5296;BME280;2670;42.720;23.336;2023-07-20T07:08:16;-18091.72;;;-145.34;58.66
5296;BME280;2670;42.720;23.336;2023-07-20T07:10:43;-18091.72;;;-145.34;57.55
5296;BME280;2670;42.720;23.336;2023-07-20T07:13:10;-18091.72;;;-145.34;57.85
5296;BME280;2670;42.720;23.336;2023-07-20T07:15:38;-18091.72;;;-145.34;57.10
5296;BME280;2670;42.720;23.336;2023-07-20T07:18:04;-18091.72;;;-145.34;56.49
5296;BME280;2670;42.720;23.336;2023-07-20T07:20:31;-18091.72;;;-145.34;55.06
5296;BME280;2670;42.720;23.336;2023-07-20T07:22:58;-18091.72;;;-145.34;55.00
5296;BME280;2670;42.720;23.336;2023-07-20T07:25:26;-18091.72;;;-145.34;55.31
5296;BME280;2670;42.720;23.336;2023-07-20T07:27:54;-18091.72;;;-145.34;55.92
5296;BME280;2670;42.720;23.336;2023-07-20T07:30:21;-18091.72;;;-145.34;55.72
5296;BME280;2670;42.720;23.336;2023-07-20T07:32:49;-18091.72;;;-145.34;56.56
5296;BME280;2670;42.720;23.336;2023-07-20T07:35:16;-18091.72;;;-145.34;56.30
5296;BME280;2670;42.720;23.336;2023-07-20T07:37:43;-18091.72;;;-145.34;55.01
5296;BME280;2670;42.720;23.336;2023-07-20T07:40:12;-18091.72;;;-145.34;54.06
5296;BME280;2670;42.720;23.336;2023-07-20T07:42:38;-18091.72;;;-145.34;54.00
5296;BME280;2670;42.720;23.336;2023-07-20T07:45:06;-18091.72;;;-145.34;54.70
5296;BME280;2670;42.720;23.336;2023-07-20T07:47:33;-18091.72;;;-145.34;55.16
5296;BME280;2670;42.720;23.336;2023-07-20T07:50:01;-18091.72;;;-145.34;53.35
5296;BME280;2670;42.720;23.336;2023-07-20T07:52:28;-18091.72;;;-145.34;54.45
5296;BME280;2670;42.720;23.336;2023-07-20T07:54:55;-18091.72;;;-145.34;55.54
5296;BME280;2670;42.720;23.336;2023-07-20T07:57:21;-18091.72;;;-145.34;53.09
5296;BME280;2670;42.720;23.336;2023-07-20T07:59:48;-18091.72;;;-145.34;53.82
5296;BME280;2670;42.720;23.336;2023-07-20T08:02:15;-18091.72;;;-145.34;52.43
5296;BME280;2670;42.720;23.336;2023-07-20T08:04:42;-18091.72;;;-145.34;52.61
5296;BME280;2670;42.720;23.336;2023-07-20T08:07:10;-18091.72;;;-145.34;53.13
5296;BME280;2670;42.720;23.336;2023-07-20T08:09:36;-18091.72;;;-145.34;52.37
5296;BME280;2670;42.720;23.336;2023-07-20T08:12:04;-18091.72;;;-145.34;52.59
5296;BME280;2670;42.720;23.336;2023-07-20T08:14:31;-18091.72;;;-145.34;52.86
5296;BME280;2670;42.720;23.336;2023-07-20T08:16:57;-18091.72;;;-145.34;53.34
5296;BME280;2670;42.720;23.336;2023-07-20T08:19:24;-18091.72;;;-145.34;53.34
5296;BME280;2670;42.720;23.336;2023-07-20T08:21:51;-18091.72;;;-145.34;52.12
5296;BME280;2670;42.720;23.336;2023-07-20T08:24:19;-18091.72;;;-145.34;52.32
5296;BME280;2670;42.720;23.336;2023-07-20T08:26:45;-18091.72;;;-145.34;50.72
5296;BME280;2670;42.720;23.336;2023-07-20T08:29:12;-18091.72;;;-145.34;49.77
5296;BME280;2670;42.720;23.336;2023-07-20T08:31:39;-18091.72;;;-145.34;49.29
5296;BME280;2670;42.720;23.336;2023-07-20T08:34:06;-18091.72;;;-145.34;49.86
5296;BME280;2670;42.720;23.336;2023-07-20T08:36:32;-18091.72;;;-145.34;48.92
5296;BME280;2670;42.720;23.336;2023-07-20T08:38:59;-18091.72;;;-145.34;48.38
5296;BME280;2670;42.720;23.336;2023-07-20T08:41:30;-18091.72;;;-145.34;47.97
5296;BME280;2670;42.720;23.336;2023-07-20T08:43:57;-18091.72;;;-145.34;48.68
5296;BME280;2670;42.720;23.336;2023-07-20T08:46:26;-18091.72;;;-145.34;47.07
5296;BME280;2670;42.720;23.336;2023-07-20T08:48:54;-18091.72;;;-145.34;46.66
5296;BME280;2670;42.720;23.336;2023-07-20T08:51:23;-18091.72;;;-145.34;46.11
5296;BME280;2670;42.720;23.336;2023-07-20T08:53:52;-18091.72;;;-145.34;45.34
5296;BME280;2670;42.720;23.336;2023-07-20T08:56:19;-18091.72;;;-145.34;46.06
5296;BME280;2670;42.720;23.336;2023-07-20T08:58:48;-18091.72;;;-145.34;46.06
5296;BME280;2670;42.720;23.336;2023-07-20T09:01:15;-18091.72;;;-145.34;45.70
5296;BME280;2670;42.720;23.336;2023-07-20T09:03:45;-18091.72;;;-145.34;45.53
5296;BME280;2670;42.720;23.336;2023-07-20T09:06:15;-18091.72;;;-145.34;45.68
5296;BME280;2670;42.720;23.336;2023-07-20T09:08:42;-18091.72;;;-145.34;45.23
5296;BME280;2670;42.720;23.336;2023-07-20T09:11:11;-18091.72;;;-145.34;45.36
5296;BME280;2670;42.720;23.336;2023-07-20T09:13:38;-18091.72;;;-145.34;45.50
5296;BME280;2670;42.720;23.336;2023-07-20T09:16:06;-18091.72;;;-145.34;44.75
5296;BME280;2670;42.720;23.336;2023-07-20T09:18:33;-18091.72;;;-145.34;44.87
5296;BME280;2670;42.720;23.336;2023-07-20T09:21:02;-18091.72;;;-145.34;45.56
5296;BME280;2670;42.720;23.336;2023-07-20T09:23:33;-18091.72;;;-145.34;43.07
5296;BME280;2670;42.720;23.336;2023-07-20T09:26:00;-18091.72;;;-145.34;44.42
5296;BME280;2670;42.720;23.336;2023-07-20T09:28:27;-18091.72;;;-145.34;40.61
5296;BME280;2670;42.720;23.336;2023-07-20T09:30:55;-18091.72;;;-145.34;40.67
5296;BME280;2670;42.720;23.336;2023-07-20T09:33:24;-18091.72;;;-145.34;41.32
5296;BME280;2670;42.720;23.336;2023-07-20T09:35:51;-18091.72;;;-145.34;41.12
5296;BME280;2670;42.720;23.336;2023-07-20T09:38:17;-18091.72;;;-145.34;39.48
5296;BME280;2670;42.720;23.336;2023-07-20T09:40:44;-18091.72;;;-145.34;39.50
5296;BME280;2670;42.720;23.336;2023-07-20T09:43:11;-18091.72;;;-145.34;39.90
5296;BME280;2670;42.720;23.336;2023-07-20T09:45:40;-18091.72;;;-145.34;40.04
5296;BME280;2670;42.720;23.336;2023-07-20T09:48:08;-18091.72;;;-145.34;41.33
5296;BME280;2670;42.720;23.336;2023-07-20T09:50:40;-18091.72;;;-145.34;41.53
5296;BME280;2670;42.720;23.336;2023-07-20T09:53:11;-18091.72;;;-145.34;39.58
5296;BME280;2670;42.720;23.336;2023-07-20T09:55:40;-18091.72;;;-145.34;39.67
5296;BME280;2670;42.720;23.336;2023-07-20T09:58:08;-18091.72;;;-145.34;40.18
5296;BME280;2670;42.720;23.336;2023-07-20T10:00:36;-18091.72;;;-145.34;39.03
5296;BME280;2670;42.720;23.336;2023-07-20T10:03:04;-18091.72;;;-145.34;39.88
5296;BME280;2670;42.720;23.336;2023-07-20T10:05:32;-18091.72;;;-145.34;40.62
5296;BME280;2670;42.720;23.336;2023-07-20T10:08:02;-18091.72;;;-145.34;39.25
5296;BME280;2670;42.720;23.336;2023-07-20T10:10:33;-18091.72;;;-145.34;38.45
5296;BME280;2670;42.720;23.336;2023-07-20T10:13:01;-18091.72;;;-145.34;38.56
5296;BME280;2670;42.720;23.336;2023-07-20T10:15:32;-18091.72;;;-145.34;38.91
5296;BME280;2670;42.720;23.336;2023-07-20T10:18:05;-18091.72;;;-145.34;38.50
5296;BME280;2670;42.720;23.336;2023-07-20T10:20:36;-18091.72;;;-145.34;39.29
5296;BME280;2670;42.720;23.336;2023-07-20T10:23:04;-18091.72;;;-145.34;37.73
5296;BME280;2670;42.720;23.336;2023-07-20T10:25:32;-18091.72;;;-145.34;38.35
5296;BME280;2670;42.720;23.336;2023-07-20T10:28:03;-18091.72;;;-145.34;38.97
5296;BME280;2670;42.720;23.336;2023-07-20T10:30:31;-18091.72;;;-145.34;38.40
5296;BME280;2670;42.720;23.336;2023-07-20T10:32:58;-18091.72;;;-145.34;38.79
5296;BME280;2670;42.720;23.336;2023-07-20T10:35:28;-18091.72;;;-145.34;38.52
5296;BME280;2670;42.720;23.336;2023-07-20T10:38:01;-18091.72;;;-145.34;39.78
5296;BME280;2670;42.720;23.336;2023-07-20T10:40:31;-18091.72;;;-145.34;39.65
5296;BME280;2670;42.720;23.336;2023-07-20T10:43:00;-18091.72;;;-145.34;38.93
5296;BME280;2670;42.720;23.336;2023-07-20T10:45:42;-18091.72;;;-145.34;39.37
5296;BME280;2670;42.720;23.336;2023-07-20T10:48:16;-18091.72;;;-145.34;39.62
5296;BME280;2670;42.720;23.336;2023-07-20T10:50:45;-18091.72;;;-145.34;39.57
5296;BME280;2670;42.720;23.336;2023-07-20T10:53:13;-18091.72;;;-145.34;40.62
5296;BME280;2670;42.720;23.336;2023-07-20T10:55:42;-18091.72;;;-145.34;40.84
5296;BME280;2670;42.720;23.336;2023-07-20T10:58:10;-18091.72;;;-145.34;40.96
5296;BME280;2670;42.720;23.336;2023-07-20T11:00:38;-18091.72;;;-145.34;40.98
5296;BME280;2670;42.720;23.336;2023-07-20T11:03:27;-18091.72;;;-145.34;42.27
5296;BME280;2670;42.720;23.336;2023-07-20T11:05:55;-18091.72;;;-145.34;40.57
5296;BME280;2670;42.720;23.336;2023-07-20T11:08:38;-18091.72;;;-145.34;38.39
5296;BME280;2670;42.720;23.336;2023-07-20T11:11:24;-18091.72;;;-145.34;39.11
5296;BME280;2670;42.720;23.336;2023-07-20T11:13:56;-18091.72;;;-145.34;38.38
5296;BME280;2670;42.720;23.336;2023-07-20T11:16:41;-18091.72;;;-145.34;38.68
5296;BME280;2670;42.720;23.336;2023-07-20T11:19:16;-18091.72;;;-145.34;40.90
5296;BME280;2670;42.720;23.336;2023-07-20T11:21:44;-18091.72;;;-145.34;39.74
5296;BME280;2670;42.720;23.336;2023-07-20T11:24:10;-18091.72;;;-145.34;38.54
5296;BME280;2670;42.720;23.336;2023-07-20T11:26:47;-18091.72;;;-145.34;39.18
5296;BME280;2670;42.720;23.336;2023-07-20T11:29:15;-18091.72;;;-145.34;39.03
5296;BME280;2670;42.720;23.336;2023-07-20T11:31:43;-18091.72;;;-145.34;39.09
5296;BME280;2670;42.720;23.336;2023-07-20T11:34:12;-18091.72;;;-145.34;39.33
5296;BME280;2670;42.720;23.336;2023-07-20T11:36:40;-18091.72;;;-145.34;39.25
5296;BME280;2670;42.720;23.336;2023-07-20T11:39:08;-18091.72;;;-145.34;39.99
5296;BME280;2670;42.720;23.336;2023-07-20T11:41:36;-18091.72;;;-145.34;39.30
5296;BME280;2670;42.720;23.336;2023-07-20T11:44:05;-18091.72;;;-145.34;38.17
5296;BME280;2670;42.720;23.336;2023-07-20T11:46:33;-18091.72;;;-145.34;39.52
5296;BME280;2670;42.720;23.336;2023-07-20T11:49:00;-18091.72;;;-145.34;38.17
5296;BME280;2670;42.720;23.336;2023-07-20T11:51:27;-18091.72;;;-145.34;39.42
5296;BME280;2670;42.720;23.336;2023-07-20T11:53:54;-18091.72;;;-145.34;38.89
5296;BME280;2670;42.720;23.336;2023-07-20T11:56:23;-18091.72;;;-145.34;37.82
5296;BME280;2670;42.720;23.336;2023-07-20T11:58:49;-18091.72;;;-145.34;37.74
5296;BME280;2670;42.720;23.336;2023-07-20T12:01:18;-18091.72;;;-145.34;35.81
5296;BME280;2670;42.720;23.336;2023-07-20T12:03:47;-18091.72;;;-145.34;36.14
5296;BME280;2670;42.720;23.336;2023-07-20T12:06:14;-18091.72;;;-145.34;35.69
5296;BME280;2670;42.720;23.336;2023-07-20T12:08:41;-18091.72;;;-145.34;35.64
5296;BME280;2670;42.720;23.336;2023-07-20T12:11:08;-18091.72;;;-145.34;35.78
5296;BME280;2670;42.720;23.336;2023-07-20T12:13:36;-18091.72;;;-145.34;36.36
5296;BME280;2670;42.720;23.336;2023-07-20T12:16:09;-18091.72;;;-145.34;37.05
5296;BME280;2670;42.720;23.336;2023-07-20T12:18:38;-18091.72;;;-145.34;37.53
5296;BME280;2670;42.720;23.336;2023-07-20T12:21:06;-18091.72;;;-145.34;37.94
5296;BME280;2670;42.720;23.336;2023-07-20T12:23:37;-18091.72;;;-145.34;36.95
5296;BME280;2670;42.720;23.336;2023-07-20T12:26:06;-18091.72;;;-145.34;36.10
5296;BME280;2670;42.720;23.336;2023-07-20T12:28:35;-18091.72;;;-145.34;35.47
5296;BME280;2670;42.720;23.336;2023-07-20T12:31:04;-18091.72;;;-145.34;35.89
5296;BME280;2670;42.720;23.336;2023-07-20T12:33:31;-18091.72;;;-145.34;34.95
5296;BME280;2670;42.720;23.336;2023-07-20T12:36:00;-18091.72;;;-145.34;34.62
5296;BME280;2670;42.720;23.336;2023-07-20T12:38:26;-18091.72;;;-145.34;34.86
5296;BME280;2670;42.720;23.336;2023-07-20T12:40:54;-18091.72;;;-145.34;34.80
5296;BME280;2670;42.720;23.336;2023-07-20T12:43:21;-18091.72;;;-145.34;33.70
5296;BME280;2670;42.720;23.336;2023-07-20T12:45:48;-18091.72;;;-145.34;33.96